Time;durP1;ratioP1;P1;durP2;ratioP2;P2;SDS_P1;SDS_P2;PMS_P1;PMS_P2;Temp;Humidity;BMP_temperature;BMP_pressure;BME280_temperature;BME280_humidity;BME280_pressure;Samples;Min_cycle;Max_cycle;Signal;HPM_P1;HPM_P2
2023/08/16 00:01:50;;;;;;;10.27;9.32;;;;;;;20.34;71.57;95004.03;5075217;28;20196;-68
2023/08/16 00:04:21;;;;;;;9.98;9.10;;;;;;;20.33;71.59;94999.63;5075331;28;20204;-69
2023/08/16 00:06:52;;;;;;;9.07;8.38;;;;;;;20.22;71.53;94996.16;5058101;28;20197;-68
2023/08/16 00:09:21;;;;;;;9.80;9.00;;;;;;;20.16;71.87;95002.22;5075028;28;20187;-68
2023/08/16 00:11:49;;;;;;;10.63;9.73;;;;;;;20.15;72.02;94999.81;5074990;28;20266;-68
2023/08/16 00:14:16;;;;;;;9.77;8.90;;;;;;;20.13;72.13;95003.03;5075419;28;20521;-68
2023/08/16 00:16:44;;;;;;;9.52;8.65;;;;;;;20.15;72.05;94999.81;5075158;28;20197;-68
2023/08/16 00:19:11;;;;;;;9.80;8.90;;;;;;;20.16;72.15;95004.22;5057742;28;20251;-68
2023/08/16 00:21:39;;;;;;;10.60;9.52;;;;;;;20.14;71.85;95001.03;5057540;28;20254;-68
2023/08/16 00:24:09;;;;;;;10.13;9.32;;;;;;;20.13;71.87;94997.44;5075109;28;20246;-68
2023/08/16 00:26:37;;;;;;;10.23;9.27;;;;;;;20.11;72.20;94999.06;5057971;28;20189;-69
2023/08/16 00:29:05;;;;;;;9.95;9.15;;;;;;;20.06;72.12;95005.91;5057482;28;20266;-69
2023/08/16 00:31:33;;;;;;;9.35;8.50;;;;;;;20.06;72.32;94999.53;5057524;28;20225;-68
2023/08/16 00:34:04;;;;;;;10.18;9.27;;;;;;;20.07;72.32;94989.91;5057242;28;20350;-68
2023/08/16 00:36:32;;;;;;;9.65;8.85;;;;;;;20.01;72.34;95000.78;5074483;28;20693;-68
2023/08/16 00:39:03;;;;;;;9.77;8.98;;;;;;;19.95;72.29;95002.44;5057644;28;20200;-68
2023/08/16 00:41:33;;;;;;;9.80;9.00;;;;;;;19.93;72.89;94993.66;5076881;28;20185;-70
2023/08/16 00:44:03;;;;;;;9.82;9.02;;;;;;;19.93;72.69;95002.88;5077971;28;20185;-69
2023/08/16 00:46:31;;;;;;;10.10;9.30;;;;;;;19.92;72.58;95006.06;5079195;28;20204;-69
2023/08/16 00:48:59;;;;;;;9.82;8.93;;;;;;;19.88;72.46;95010.91;5078943;28;20185;-69
2023/08/16 00:51:27;;;;;;;9.85;9.05;;;;;;;19.87;72.54;95012.91;5078832;28;20193;-69
2023/08/16 00:53:55;;;;;;;9.73;8.93;;;;;;;19.85;73.14;95004.13;5077706;28;20560;-68
2023/08/16 00:56:24;;;;;;;9.52;8.63;;;;;;;19.82;73.07;95004.16;5061276;28;20189;-68
2023/08/16 00:58:54;;;;;;;10.55;9.55;;;;;;;19.82;72.88;95012.56;5061137;28;20291;-68
2023/08/16 01:01:21;;;;;;;9.63;8.85;;;;;;;19.85;73.05;95006.13;5078648;28;20205;-68
2023/08/16 01:03:48;;;;;;;10.00;9.13;;;;;;;19.83;73.19;95006.56;5077590;28;20255;-68
2023/08/16 01:06:16;;;;;;;10.45;9.55;;;;;;;19.74;72.99;95003.44;5061039;28;20205;-68
2023/08/16 01:08:44;;;;;;;10.32;9.52;;;;;;;19.73;73.11;94999.06;5077808;28;20181;-68
2023/08/16 01:11:18;;;;;;;10.73;9.70;;;;;;;19.73;73.26;95003.84;5060859;28;20629;-68
2023/08/16 01:13:53;;;;;;;9.90;9.10;;;;;;;19.71;73.09;94996.66;5060815;28;20215;-68
2023/08/16 01:16:24;;;;;;;9.98;9.15;;;;;;;19.68;73.41;94988.28;5078642;28;20189;-68
2023/08/16 01:18:53;;;;;;;9.85;9.05;;;;;;;19.62;73.16;94987.97;5078296;28;20201;-68
2023/08/16 01:21:22;;;;;;;10.15;9.25;;;;;;;19.61;73.30;94994.75;5078303;28;20226;-68
2023/08/16 01:24:01;;;;;;;10.75;9.77;;;;;;;19.60;73.53;94993.13;5078064;28;20192;-68
2023/08/16 01:26:31;;;;;;;9.35;8.55;;;;;;;19.59;73.70;94996.34;5060826;28;20204;-69
2023/08/16 01:29:01;;;;;;;9.48;8.77;;;;;;;19.60;73.45;94992.34;5078092;28;20185;-69
2023/08/16 01:31:28;;;;;;;9.68;8.93;;;;;;;19.57;73.38;94993.97;5060486;28;20201;-69
2023/08/16 01:33:57;;;;;;;9.80;8.88;;;;;;;19.53;73.47;94998.00;5077995;28;20220;-69
2023/08/16 01:36:23;;;;;;;10.80;9.63;;;;;;;19.45;74.18;94988.88;5060285;28;20204;-69
2023/08/16 01:38:50;;;;;;;10.00;9.00;;;;;;;19.44;74.13;94993.66;5056571;28;20233;-68
2023/08/16 01:41:22;;;;;;;9.82;9.00;;;;;;;19.43;73.81;94988.50;5055744;28;20618;-68
2023/08/16 01:43:57;;;;;;;9.93;9.13;;;;;;;19.43;73.86;94991.31;5056626;28;20218;-68
2023/08/16 01:46:26;;;;;;;10.75;9.75;;;;;;;19.44;73.92;94984.50;5056313;28;20185;-68
2023/08/16 01:48:56;;;;;;;10.35;9.45;;;;;;;19.44;73.99;94982.47;5056736;28;20205;-68
2023/08/16 01:51:24;;;;;;;10.25;9.35;;;;;;;19.42;73.99;94984.09;5056256;28;20251;-68
2023/08/16 01:53:54;;;;;;;11.60;10.40;;;;;;;19.38;74.04;94978.53;5055250;28;20218;-68
2023/08/16 01:56:24;;;;;;;10.68;9.60;;;;;;;19.36;74.08;94974.56;5056541;28;20185;-68
2023/08/16 01:58:54;;;;;;;10.25;9.40;;;;;;;19.35;74.18;94979.34;5055777;28;20197;-68
2023/08/16 02:01:22;;;;;;;10.18;9.35;;;;;;;19.36;74.26;94974.56;5056255;28;20610;-68
2023/08/16 02:03:50;;;;;;;10.25;9.43;;;;;;;19.39;73.86;94979.31;5055135;28;20198;-70
2023/08/16 02:06:21;;;;;;;10.80;9.88;;;;;;;19.34;73.50;94974.97;5056326;28;20252;-69
2023/08/16 02:08:49;;;;;;;10.35;9.55;;;;;;;19.31;74.05;94975.78;5056522;28;20206;-69
2023/08/16 02:11:17;;;;;;;10.05;9.18;;;;;;;19.29;74.21;94977.44;5055957;28;20186;-69
2023/08/16 02:13:45;;;;;;;10.23;9.27;;;;;;;19.28;74.06;94978.63;5055783;28;20213;-69
2023/08/16 02:16:14;;;;;;;10.07;9.07;;;;;;;19.26;74.58;94975.44;5055386;28;20572;-69
2023/08/16 02:18:45;;;;;;;10.05;9.25;;;;;;;19.27;74.12;94977.81;5054890;28;20212;-69
2023/08/16 02:21:13;;;;;;;11.00;10.00;;;;;;;19.27;74.58;94977.03;5055088;28;20197;-69
2023/08/16 02:23:41;;;;;;;10.82;9.75;;;;;;;19.22;74.21;94984.66;5054753;28;20200;-69
2023/08/16 02:26:09;;;;;;;9.90;9.10;;;;;;;19.21;74.73;94973.91;5055575;28;20190;-69
2023/08/16 02:28:39;;;;;;;10.48;9.55;;;;;;;19.18;74.44;94978.31;5055336;28;20204;-67
2023/08/16 02:31:07;;;;;;;10.85;9.75;;;;;;;19.15;74.37;94979.13;5055455;28;20201;-67
2023/08/16 02:33:39;;;;;;;10.52;9.55;;;;;;;19.14;74.31;94971.94;5055851;28;20236;-66
2023/08/16 02:36:07;;;;;;;10.38;9.50;;;;;;;19.12;74.25;94965.97;5054961;28;20729;-66
2023/08/16 02:38:34;;;;;;;11.18;9.95;;;;;;;19.12;74.15;94971.53;5026476;28;1356013;-66
2023/08/16 02:41:01;;;;;;;11.23;10.20;;;;;;;19.09;74.37;94969.56;5076798;28;20687;-66
2023/08/16 02:43:32;;;;;;;10.52;9.52;;;;;;;19.06;74.61;94964.78;5059477;28;20193;-66
2023/08/16 02:46:02;;;;;;;11.15;10.05;;;;;;;19.06;75.24;94964.78;5059063;28;20204;-67
2023/08/16 02:48:30;;;;;;;10.82;9.85;;;;;;;19.08;75.19;94970.78;5076655;28;20193;-66
2023/08/16 02:51:04;;;;;;;10.02;9.18;;;;;;;19.08;75.33;94975.59;5059437;28;20193;-66
2023/08/16 02:53:32;;;;;;;10.90;10.00;;;;;;;19.05;75.31;94970.81;5058958;28;20217;-66
2023/08/16 02:55:58;;;;;;;9.95;9.05;;;;;;;19.04;75.15;94970.00;5076175;28;20204;-67
2023/08/16 02:58:26;;;;;;;10.80;9.80;;;;;;;19.04;74.77;94974.81;5058559;28;20200;-66
2023/08/16 03:00:54;;;;;;;10.45;9.55;;;;;;;19.06;74.91;94969.59;5076089;28;20636;-66
2023/08/16 03:03:21;;;;;;;11.98;9.80;;;;;;;19.03;74.78;94971.22;5075610;28;20211;-66
2023/08/16 03:05:49;;;;;;;10.77;9.88;;;;;;;19.03;75.10;94971.22;5076272;28;20199;-66
2023/08/16 03:08:19;;;;;;;11.27;10.23;;;;;;;19.03;74.94;94970.41;5076534;28;20250;-66
2023/08/16 03:10:50;;;;;;;11.20;10.30;;;;;;;19.04;75.04;94972.81;5058979;28;20214;-67
2023/08/16 03:13:17;;;;;;;14.90;13.55;;;;;;;19.03;75.32;94981.59;5076086;28;20209;-67
2023/08/16 03:15:45;;;;;;;11.23;10.20;;;;;;;19.05;75.16;94977.19;5041691;28;20236;-67
2023/08/16 03:18:13;;;;;;;11.23;10.13;;;;;;;19.06;74.87;94975.97;5058226;28;20197;-67
2023/08/16 03:20:42;;;;;;;11.48;10.32;;;;;;;19.05;75.04;94977.19;5075910;28;20235;-67
2023/08/16 03:23:09;;;;;;;10.93;9.85;;;;;;;19.03;75.35;94984.38;5058640;28;20294;-67
2023/08/16 03:25:43;;;;;;;10.60;9.65;;;;;;;19.01;75.07;94993.19;5076088;28;20192;-67
2023/08/16 03:28:12;;;;;;;11.02;9.88;;;;;;;19.03;75.07;94987.19;5075770;28;20196;-67
2023/08/16 03:30:40;;;;;;;11.48;10.48;;;;;;;19.01;75.07;94990.41;5058007;28;20536;-67
2023/08/16 03:33:08;;;;;;;11.07;10.15;;;;;;;18.92;74.96;94990.06;5058540;28;20225;-67
2023/08/16 03:35:38;;;;;;;11.20;10.07;;;;;;;18.90;75.39;94989.66;5075779;28;20181;-67
2023/08/16 03:38:08;;;;;;;10.65;9.63;;;;;;;18.87;75.57;94993.28;5075338;28;20340;-67
2023/08/16 03:40:38;;;;;;;11.00;10.05;;;;;;;18.87;75.40;94993.28;5075821;28;20194;-67
2023/08/16 03:43:06;;;;;;;12.02;10.75;;;;;;;18.84;75.31;94989.28;5058382;28;20258;-67
2023/08/16 03:45:36;;;;;;;11.27;10.27;;;;;;;18.82;75.30;94996.50;5074391;28;20201;-67
2023/08/16 03:48:05;;;;;;;11.15;10.05;;;;;;;18.79;75.38;94994.53;5074504;28;20193;-67
2023/08/16 03:50:33;;;;;;;10.60;9.63;;;;;;;18.78;75.51;94990.16;5075289;28;20205;-67
2023/08/16 03:53:01;;;;;;;11.07;10.00;;;;;;;18.76;75.52;94991.34;5057915;28;20193;-67
2023/08/16 03:55:29;;;;;;;10.60;9.70;;;;;;;18.74;75.38;94988.16;5058113;28;20205;-67
2023/08/16 03:58:03;;;;;;;11.48;10.48;;;;;;;18.73;75.46;94985.78;5075353;28;20254;-67
2023/08/16 04:00:31;;;;;;;11.73;10.63;;;;;;;18.75;75.46;94991.75;5075383;28;20316;-67
2023/08/16 04:02:59;;;;;;;12.80;10.30;;;;;;;18.72;75.33;94990.56;5075389;28;20185;-67
2023/08/16 04:05:27;;;;;;;11.13;9.95;;;;;;;18.74;75.70;94995.75;5057920;28;20193;-67
2023/08/16 04:07:55;;;;;;;11.38;10.32;;;;;;;18.72;75.60;95001.75;5057392;28;20184;-67
2023/08/16 04:10:23;;;;;;;12.25;11.00;;;;;;;18.72;75.60;95001.75;5057594;28;20227;-67
2023/08/16 04:12:51;;;;;;;11.82;10.45;;;;;;;18.73;75.42;94997.72;5074082;28;20605;-67
2023/08/16 04:15:21;;;;;;;11.98;10.55;;;;;;;18.76;75.52;95002.50;5074945;28;20255;-67
2023/08/16 04:17:49;;;;;;;12.85;11.25;;;;;;;18.74;75.66;94996.56;5075293;28;20189;-67
2023/08/16 04:20:18;;;;;;;12.30;11.25;;;;;;;18.73;75.64;95008.91;5074880;28;20189;-67
2023/08/16 04:22:45;;;;;;;12.88;11.50;;;;;;;18.75;76.04;95011.31;5074881;28;20205;-67
2023/08/16 04:25:12;;;;;;;13.27;12.02;;;;;;;18.79;75.81;95000.13;5074796;28;20290;-67
2023/08/16 04:27:42;;;;;;;13.40;12.10;;;;;;;18.83;75.91;95009.28;5057114;28;20208;-67
2023/08/16 04:30:11;;;;;;;13.18;11.40;;;;;;;18.84;75.61;95003.25;5075070;28;20226;-67
2023/08/16 04:32:44;;;;;;;13.38;11.57;;;;;;;18.87;75.61;95012.84;5075323;28;20189;-67
2023/08/16 04:35:12;;;;;;;13.30;11.95;;;;;;;18.86;75.83;95008.47;5074620;28;20582;-67
2023/08/16 04:37:40;;;;;;;12.90;11.70;;;;;;;18.89;75.99;95013.25;5053513;28;20720;-67
2023/08/16 04:40:12;;;;;;;12.82;11.65;;;;;;;18.94;75.87;95008.00;5053978;28;20212;-67
2023/08/16 04:42:40;;;;;;;14.90;13.40;;;;;;;18.98;75.86;95013.56;5054921;28;20186;-67
2023/08/16 04:45:11;;;;;;;16.75;14.75;;;;;;;18.94;75.61;95010.78;5053822;28;20201;-67
2023/08/16 04:47:38;;;;;;;17.60;15.27;;;;;;;18.97;75.87;95009.19;5054050;28;20193;-67
2023/08/16 04:50:08;;;;;;;16.00;14.40;;;;;;;19.03;76.42;95012.34;5053008;28;20537;-67
2023/08/16 04:52:39;;;;;;;14.45;13.05;;;;;;;19.09;76.34;95007.91;5055049;28;20194;-67
2023/08/16 04:55:06;;;;;;;14.55;13.15;;;;;;;19.14;76.56;95013.88;5054668;28;20218;-67
2023/08/16 04:57:34;;;;;;;14.10;12.65;;;;;;;19.22;76.18;95011.81;5054133;28;20205;-67
2023/08/16 05:00:06;;;;;;;13.57;11.65;;;;;;;19.27;75.45;95010.59;5054723;28;20190;-67
2023/08/16 05:02:35;;;;;;;15.07;13.65;;;;;;;19.30;76.08;95002.16;5053947;28;20225;-67
2023/08/16 05:05:04;;;;;;;16.00;13.73;;;;;;;19.33;76.34;95006.94;5054775;28;20193;-67
2023/08/16 05:07:33;;;;;;;14.80;13.18;;;;;;;19.39;75.94;94998.91;5053871;28;20205;-67
2023/08/16 05:10:01;;;;;;;16.25;13.10;;;;;;;19.45;75.57;95003.66;5053647;28;20206;-67
2023/08/16 05:12:29;;;;;;;12.90;11.77;;;;;;;19.49;76.01;95003.63;5054492;28;20247;-67
2023/08/16 05:14:57;;;;;;;13.65;11.93;;;;;;;19.56;75.89;95003.56;5053898;28;20229;-67
2023/08/16 05:17:25;;;;;;;12.40;10.93;;;;;;;19.63;75.21;95008.34;5054507;28;20549;-67
2023/08/16 05:19:54;;;;;;;14.95;11.75;;;;;;;19.67;75.20;95004.28;5053286;28;20206;-67
2023/08/16 05:22:24;;;;;;;12.93;11.80;;;;;;;19.71;75.08;95007.06;5054179;28;20603;-67
2023/08/16 05:24:56;;;;;;;12.38;11.07;;;;;;;19.74;74.54;95009.03;5053784;28;20201;-67
2023/08/16 05:27:24;;;;;;;11.93;10.52;;;;;;;19.77;74.19;95007.41;5055718;28;20296;-67
2023/08/16 05:29:52;;;;;;;10.95;10.02;;;;;;;19.80;73.99;95001.00;5057291;28;20633;-67
2023/08/16 05:32:20;;;;;;;12.75;9.93;;;;;;;19.81;74.26;95008.16;5056985;28;20202;-67
2023/08/16 05:34:48;;;;;;;15.07;11.38;;;;;;;19.82;74.53;95001.34;5057083;28;20284;-67
2023/08/16 05:37:16;;;;;;;11.93;10.63;;;;;;;19.83;74.43;95000.97;5057076;28;20331;-67
2023/08/16 05:39:44;;;;;;;11.45;10.35;;;;;;;19.83;74.56;95000.97;5057697;28;20178;-67
2023/08/16 05:42:15;;;;;;;11.65;10.55;;;;;;;19.86;74.52;94997.34;5057631;28;20218;-67
2023/08/16 05:44:43;;;;;;;10.73;9.82;;;;;;;19.89;73.57;94992.91;5056689;28;20201;-67
2023/08/16 05:47:12;;;;;;;11.07;9.98;;;;;;;19.91;73.74;94996.09;5056802;28;20213;-67
2023/08/16 05:49:40;;;;;;;11.43;10.32;;;;;;;19.93;73.29;95004.84;5057004;28;20198;-67
2023/08/16 05:52:08;;;;;;;11.57;10.27;;;;;;;19.96;72.70;94998.41;5057122;28;20190;-67
2023/08/16 05:54:36;;;;;;;12.32;11.20;;;;;;;19.99;72.96;95000.38;5056649;28;20233;-67
2023/08/16 05:57:05;;;;;;;11.27;10.18;;;;;;;20.03;72.67;95003.94;5057011;28;20263;-67
2023/08/16 05:59:34;;;;;;;11.60;10.50;;;;;;;20.08;72.55;95008.28;5056596;28;20202;-67
2023/08/16 06:02:02;;;;;;;10.93;9.93;;;;;;;20.12;72.53;95011.88;5057313;28;20185;-67
2023/08/16 06:04:33;;;;;;;10.85;9.95;;;;;;;20.15;71.87;95011.84;5057624;28;20190;-67
2023/08/16 06:07:01;;;;;;;10.63;9.70;;;;;;;20.20;72.52;95008.56;5057488;28;20209;-67
2023/08/16 06:09:31;;;;;;;11.80;10.80;;;;;;;20.24;71.95;95002.94;5057101;28;20205;-67
2023/08/16 06:12:00;;;;;;;11.13;10.20;;;;;;;20.27;71.94;95006.91;5056243;28;20198;-67
2023/08/16 06:14:28;;;;;;;10.60;9.77;;;;;;;20.29;71.62;95008.06;5056326;28;20309;-67
2023/08/16 06:17:01;;;;;;;9.95;9.02;;;;;;;20.31;71.35;95011.25;5056471;28;20224;-67
2023/08/16 06:19:28;;;;;;;10.60;9.73;;;;;;;20.32;71.07;95006.44;5056301;28;20205;-67
2023/08/16 06:21:56;;;;;;;11.18;10.05;;;;;;;20.33;71.15;95008.03;5056040;28;20197;-67
2023/08/16 06:24:22;;;;;;;10.30;9.27;;;;;;;20.35;70.84;95006.41;5055911;28;20297;-67
2023/08/16 06:26:50;;;;;;;10.23;9.32;;;;;;;20.38;71.02;95005.56;5055766;28;20205;-67
2023/08/16 06:29:18;;;;;;;11.02;9.60;;;;;;;20.39;71.48;95001.53;5056101;28;20610;-67
2023/08/16 06:31:46;;;;;;;10.70;9.73;;;;;;;20.43;71.40;95007.09;5055824;28;20190;-67
2023/08/16 06:34:17;;;;;;;10.00;9.10;;;;;;;20.45;71.29;94999.09;5056223;28;20218;-67
2023/08/16 06:36:45;;;;;;;10.35;9.38;;;;;;;20.47;71.29;94996.66;5058114;28;20239;-67
2023/08/16 06:39:13;;;;;;;10.30;9.40;;;;;;;20.51;71.09;94996.63;5058035;28;20185;-67
2023/08/16 06:41:41;;;;;;;10.25;9.45;;;;;;;20.55;70.85;94998.19;5075551;28;20194;-67
2023/08/16 06:44:09;;;;;;;10.75;9.75;;;;;;;20.60;71.11;95002.53;5059169;28;20181;-67
2023/08/16 06:46:37;;;;;;;10.98;9.93;;;;;;;20.64;70.92;94997.69;5059470;28;20255;-67
2023/08/16 06:49:04;;;;;;;10.18;9.27;;;;;;;20.67;70.52;94994.03;5059074;28;20205;-67
2023/08/16 06:51:33;;;;;;;10.15;9.25;;;;;;;20.71;70.27;94999.59;5059173;28;20197;-67
2023/08/16 06:54:02;;;;;;;10.98;9.95;;;;;;;20.76;70.53;94997.09;5058929;28;20200;-67
2023/08/16 06:56:30;;;;;;;9.65;8.75;;;;;;;20.81;70.02;94987.47;5059307;28;20185;-67
2023/08/16 06:59:00;;;;;;;10.45;9.55;;;;;;;20.88;70.28;94987.38;5059306;28;20208;-67
2023/08/16 07:01:28;;;;;;;10.23;9.32;;;;;;;20.93;69.95;94986.88;5058986;28;20193;-67
2023/08/16 07:03:59;;;;;;;11.05;10.13;;;;;;;20.98;69.61;94985.59;5075391;28;20189;-67
2023/08/16 07:06:27;;;;;;;10.57;9.48;;;;;;;21.00;69.76;94989.59;5058833;28;20197;-67
2023/08/16 07:09:00;;;;;;;10.85;9.85;;;;;;;21.03;69.52;94985.94;5059163;28;20189;-67
2023/08/16 07:11:30;;;;;;;10.80;9.70;;;;;;;21.05;69.10;94979.91;5075599;28;20197;-67
2023/08/16 07:14:00;;;;;;;9.75;8.85;;;;;;;21.07;68.97;94975.47;5058783;28;20250;-67
2023/08/16 07:16:28;;;;;;;10.82;9.73;;;;;;;21.08;68.89;94974.22;5059017;28;20228;-67
2023/08/16 07:18:57;;;;;;;10.48;9.68;;;;;;;21.09;68.82;94973.00;5058478;28;20214;-67
2023/08/16 07:21:27;;;;;;;11.15;10.05;;;;;;;21.13;69.13;94984.16;5058723;28;20196;-67
2023/08/16 07:23:55;;;;;;;10.65;9.75;;;;;;;21.18;69.27;94980.13;5058112;28;20205;-67
2023/08/16 07:26:24;;;;;;;11.13;10.00;;;;;;;21.23;69.50;94982.44;5075151;28;20208;-67
2023/08/16 07:28:51;;;;;;;11.18;10.18;;;;;;;21.29;68.85;94977.94;5074974;28;20220;-67
2023/08/16 07:31:22;;;;;;;11.35;10.15;;;;;;;21.33;68.94;94970.25;5058529;28;20618;-67
2023/08/16 07:33:49;;;;;;;11.70;10.70;;;;;;;21.41;69.10;94965.34;5058215;28;20254;-67
2023/08/16 07:36:17;;;;;;;11.18;10.27;;;;;;;21.48;68.83;94962.44;5058045;28;20209;-67
2023/08/16 07:38:47;;;;;;;11.88;10.38;;;;;;;21.58;68.87;94964.28;5071062;28;20251;-67
2023/08/16 07:41:15;;;;;;;11.40;10.38;;;;;;;21.69;67.75;94972.50;5054904;28;20251;-67
2023/08/16 07:43:44;;;;;;;11.65;10.52;;;;;;;21.75;67.56;94962.34;5054524;28;20221;-67
2023/08/16 07:46:13;;;;;;;11.57;10.55;;;;;;;21.91;66.52;94970.13;5054410;28;20186;-67
2023/08/16 07:48:41;;;;;;;13.68;10.05;;;;;;;21.93;66.04;94965.63;5054893;28;20586;-67
2023/08/16 07:51:07;;;;;;;11.27;10.27;;;;;;;21.94;66.05;94966.44;5054168;28;20216;-67
2023/08/16 07:53:35;;;;;;;10.45;9.55;;;;;;;21.97;66.74;94959.94;5054304;28;20205;-67
2023/08/16 07:56:04;;;;;;;9.80;8.90;;;;;;;22.08;66.05;94952.16;5054383;28;20214;-67
2023/08/16 07:58:34;;;;;;;9.80;8.90;;;;;;;22.14;65.94;94958.84;5054212;28;20653;-67
2023/08/16 08:01:04;;;;;;;10.48;9.50;;;;;;;22.20;65.68;94964.78;5054211;28;20296;-67
2023/08/16 08:03:32;;;;;;;11.93;10.82;;;;;;;22.34;65.12;94959.66;5054400;28;20213;-67
2023/08/16 08:06:02;;;;;;;10.27;9.25;;;;;;;22.52;64.33;94969.75;5054549;28;20209;-67
2023/08/16 08:08:31;;;;;;;10.52;9.48;;;;;;;22.67;63.79;94962.59;5054423;28;20204;-67
2023/08/16 08:10:59;;;;;;;10.70;9.70;;;;;;;22.80;63.28;94971.16;5054359;28;20240;-67
2023/08/16 08:13:28;;;;;;;10.88;9.85;;;;;;;22.96;62.62;94971.25;5054091;28;20197;-67
2023/08/16 08:15:56;;;;;;;10.77;9.25;;;;;;;23.03;62.15;94973.13;5054013;28;20614;-67
2023/08/16 08:18:25;;;;;;;10.55;9.35;;;;;;;23.00;62.54;94957.09;5053994;28;20660;-67
2023/08/16 08:20:54;;;;;;;10.68;9.68;;;;;;;23.05;62.47;94965.81;5054236;28;20201;-67
2023/08/16 08:23:22;;;;;;;10.13;9.07;;;;;;;23.20;62.51;94959.84;5054545;28;20292;-67
2023/08/16 08:25:50;;;;;;;10.70;8.82;;;;;;;23.43;61.15;94961.72;5054249;28;20186;-67
2023/08/16 08:28:20;;;;;;;9.73;8.82;;;;;;;23.48;61.60;94959.16;5054466;28;20255;-67
2023/08/16 08:30:49;;;;;;;9.27;7.93;;;;;;;23.49;60.97;94957.97;5054173;28;20204;-67
2023/08/16 08:33:17;;;;;;;9.90;9.10;;;;;;;23.58;61.50;94960.16;5053869;28;20560;-67
2023/08/16 08:35:47;;;;;;;10.07;8.98;;;;;;;23.73;60.60;94963.41;5070438;28;20218;-67
2023/08/16 08:38:17;;;;;;;9.95;9.18;;;;;;;23.85;59.83;94965.50;5053864;28;20237;-67
2023/08/16 08:40:46;;;;;;;8.93;8.20;;;;;;;24.00;59.64;94963.91;5054502;28;20208;-67
2023/08/16 08:43:16;;;;;;;12.40;10.07;;;;;;;24.05;59.26;94956.94;5070972;28;20296;-67
2023/08/16 08:45:46;;;;;;;9.48;8.65;;;;;;;24.09;59.96;94954.03;5053694;28;20579;-67
2023/08/16 08:48:14;;;;;;;9.52;8.65;;;;;;;24.18;59.20;94954.19;5053917;28;20226;-67
2023/08/16 08:50:43;;;;;;;9.48;8.68;;;;;;;24.31;58.49;94948.59;5053785;28;20202;-67
2023/08/16 08:53:12;;;;;;;10.15;9.13;;;;;;;24.48;57.83;94947.34;5054061;28;20210;-67
2023/08/16 08:55:44;;;;;;;10.95;8.13;;;;;;;24.65;56.87;94945.22;5053543;28;20213;-67
2023/08/16 08:58:12;;;;;;;9.18;8.38;;;;;;;24.66;56.24;94941.97;5054027;28;20194;-67
2023/08/16 09:00:40;;;;;;;10.63;8.52;;;;;;;24.73;56.86;94947.41;5054144;28;20190;-67
2023/08/16 09:03:08;;;;;;;10.60;8.52;;;;;;;24.99;54.99;94950.25;5056807;28;20205;-67
2023/08/16 09:05:39;;;;;;;7.97;7.28;;;;;;;25.15;54.27;94950.19;5057366;28;20666;-67
2023/08/16 09:08:08;;;;;;;8.73;7.95;;;;;;;25.16;54.56;94956.59;5057443;28;20610;-67
2023/08/16 09:10:41;;;;;;;9.63;8.68;;;;;;;25.11;54.44;94955.16;5057710;28;20233;-67
2023/08/16 09:13:10;;;;;;;9.45;8.55;;;;;;;25.02;55.25;94952.19;5057706;28;20259;-67
2023/08/16 09:15:38;;;;;;;10.32;8.82;;;;;;;25.08;54.95;94946.75;5057242;28;20222;-67
2023/08/16 09:18:11;;;;;;;10.07;9.07;;;;;;;25.12;55.72;94944.66;5057598;28;20201;-67
2023/08/16 09:20:42;;;;;;;9.38;8.55;;;;;;;25.10;56.02;94952.75;5057876;28;20206;-67
2023/08/16 09:23:13;;;;;;;9.95;9.05;;;;;;;25.11;56.21;94943.06;5057348;28;20209;-67
2023/08/16 09:25:45;;;;;;;10.27;9.35;;;;;;;25.03;56.82;94950.16;5057057;28;20275;-67
2023/08/16 09:28:14;;;;;;;10.15;9.25;;;;;;;24.92;57.54;94944.84;5058242;28;20193;-67
2023/08/16 09:30:43;;;;;;;10.02;9.18;;;;;;;24.86;56.63;94944.59;5057006;28;20223;-67
2023/08/16 09:33:14;;;;;;;10.00;9.00;;;;;;;24.80;56.17;94939.94;5057018;28;20194;-67
2023/08/16 09:35:48;;;;;;;9.77;8.90;;;;;;;24.72;55.81;94940.16;5057098;28;20217;-67
2023/08/16 09:38:16;;;;;;;9.93;8.90;;;;;;;24.82;55.90;94937.47;5056987;28;20299;-67
2023/08/16 09:40:52;;;;;;;10.15;9.32;;;;;;;25.15;54.37;94933.25;5057333;28;20202;-67
2023/08/16 09:43:21;;;;;;;9.77;8.88;;;;;;;25.48;54.57;94937.88;5057271;28;20206;-67
2023/08/16 09:45:51;;;;;;;9.85;9.05;;;;;;;25.81;53.86;94935.56;5056697;28;20194;-67
2023/08/16 09:48:24;;;;;;;10.55;9.55;;;;;;;25.95;53.25;94923.00;5057457;28;20236;-67
2023/08/16 09:50:52;;;;;;;10.07;8.98;;;;;;;26.12;52.01;94935.72;5057148;28;20197;-67
2023/08/16 09:53:19;;;;;;;9.68;8.35;;;;;;;26.32;51.68;94924.88;5056720;28;20205;-67
2023/08/16 09:55:51;;;;;;;9.43;8.63;;;;;;;26.53;50.64;94933.84;5073495;28;20263;-67
2023/08/16 09:58:24;;;;;;;9.05;8.27;;;;;;;26.60;50.50;94939.25;5057083;28;20235;-67
2023/08/16 10:00:52;;;;;;;9.73;8.93;;;;;;;26.59;50.71;94934.84;5056845;28;20213;-67
2023/08/16 10:03:21;;;;;;;10.38;9.38;;;;;;;26.68;51.32;94934.91;5056932;28;20201;-67
2023/08/16 10:05:48;;;;;;;9.75;8.95;;;;;;;26.74;52.04;94933.06;5056683;28;20193;-67
2023/08/16 10:08:16;;;;;;;10.40;9.45;;;;;;;26.84;51.04;94939.56;5057089;28;20252;-67
2023/08/16 10:10:47;;;;;;;10.02;8.95;;;;;;;26.92;48.48;94931.59;5056262;28;20198;-67
2023/08/16 10:13:15;;;;;;;10.13;8.32;;;;;;;26.95;48.72;94937.13;5055918;28;20679;-67
2023/08/16 10:15:47;;;;;;;9.57;8.57;;;;;;;27.04;48.52;94930.72;5056420;28;20560;-67
2023/08/16 10:18:19;;;;;;;9.77;8.77;;;;;;;27.16;47.82;94932.66;5073409;28;20278;-67
2023/08/16 10:20:48;;;;;;;10.35;9.30;;;;;;;27.19;48.06;94940.25;5056630;28;20255;-67
2023/08/16 10:23:17;;;;;;;9.23;8.32;;;;;;;27.36;47.11;94940.78;5055957;28;20189;-67
2023/08/16 10:25:45;;;;;;;10.25;9.25;;;;;;;27.24;47.70;94924.72;5056125;28;20212;-67
2023/08/16 10:28:15;;;;;;;9.73;8.82;;;;;;;26.87;47.11;94930.13;5055980;28;20247;-67
2023/08/16 10:30:47;;;;;;;10.93;8.30;;;;;;;26.55;48.63;94925.72;5055859;28;20209;-67
2023/08/16 10:33:19;;;;;;;10.00;9.05;;;;;;;26.35;49.29;94931.66;5056093;28;20201;-67
2023/08/16 10:35:50;;;;;;;8.70;7.90;;;;;;;26.16;48.41;94927.91;5055963;28;20732;-67
2023/08/16 10:38:19;;;;;;;8.43;7.55;;;;;;;26.00;47.72;94923.22;5055641;28;20229;-67
2023/08/16 10:41:02;;;;;;;8.90;8.15;;;;;;;26.21;49.58;94920.84;5055932;28;20194;-67
2023/08/16 10:43:36;;;;;;;9.60;8.63;;;;;;;26.58;49.50;94921.94;5055792;28;20193;-67
2023/08/16 10:46:04;;;;;;;9.55;8.48;;;;;;;26.91;49.40;94916.66;5055500;28;20204;-67
2023/08/16 10:48:33;;;;;;;9.25;8.45;;;;;;;27.05;47.24;94916.09;5056000;28;20193;-67
2023/08/16 10:51:04;;;;;;;9.00;8.25;;;;;;;26.78;47.92;94922.41;5055479;28;20202;-67
2023/08/16 10:53:31;;;;;;;9.25;8.27;;;;;;;26.58;48.50;94919.13;5055776;28;20259;-67
2023/08/16 10:55:59;;;;;;;8.40;7.60;;;;;;;26.48;48.27;94912.63;5055585;28;20217;-67
2023/08/16 10:58:28;;;;;;;9.15;8.27;;;;;;;26.40;48.29;94911.28;5055664;28;20255;-67
2023/08/16 11:00:58;;;;;;;9.60;8.73;;;;;;;26.38;49.10;94917.38;5055615;28;20248;-67
2023/08/16 11:03:39;;;;;;;9.98;9.05;;;;;;;26.53;50.51;94912.03;5055491;28;20207;-67
2023/08/16 11:06:09;;;;;;;9.80;8.90;;;;;;;26.74;50.69;94906.81;5055133;28;20193;-67
2023/08/16 11:08:39;;;;;;;10.20;9.20;;;;;;;26.64;49.30;94912.41;5055794;28;20201;-67
2023/08/16 11:11:09;;;;;;;9.68;8.88;;;;;;;26.46;49.62;94909.47;5055629;28;20210;-67
2023/08/16 11:13:36;;;;;;;10.18;9.18;;;;;;;26.34;50.17;94913.91;5055474;28;20202;-67
2023/08/16 11:16:04;;;;;;;9.40;8.57;;;;;;;26.21;50.33;94913.16;5054849;28;20217;-67
2023/08/16 11:18:36;;;;;;;9.90;9.02;;;;;;;26.11;50.75;94912.31;5055002;28;20213;-67
2023/08/16 11:21:08;;;;;;;9.88;8.98;;;;;;;26.04;50.96;94906.13;5055542;28;20263;-67
2023/08/16 11:23:37;;;;;;;11.07;9.00;;;;;;;26.00;51.34;94899.78;5055155;28;20201;-67
2023/08/16 11:26:07;;;;;;;9.77;8.88;;;;;;;26.00;51.48;94913.91;5054497;28;20205;-67
2023/08/16 11:28:36;;;;;;;9.73;9.02;;;;;;;25.93;52.06;94901.66;5054930;28;20201;-67
2023/08/16 11:31:07;;;;;;;12.13;9.23;;;;;;;25.84;52.75;94900.75;5054852;28;20197;-67
2023/08/16 11:33:39;;;;;;;10.38;9.48;;;;;;;25.75;52.28;94903.50;5054911;28;20267;-67